Hlavní strana
METAR-TAF:

METAR-TAF

Letiště :

New Orleans, Louisiana, Spojené státy americké

zeměpisná šířka: 29-59-34N, zeměpisná délka: 090-15-03W, výška: 1 m

Aktuální stav počasí

Zpráva byla vytvořena před 1 hodinou a 11 minutami, v 04:53 UTC
Severozápadní vítr 10 kt
Teplota 14°C
Vlhkost vzduchu 44%
Tlak 1018 hPa
Viditelnost: 16.1 km
Oblačno až skoro zataženo ve výšce 25000 ft

METAR: KMSY 230453Z 31010KT 10SM BKN250 14/02 A3007 RMK AO2 SLP184 T01390022

Čas: 00:04 (06:04 UTC)

Předpověď počasí

Zpráva byla vytvořena před 26 minutami, v 05:38 UTC
Předpověď platná od 23 v 06 UTC do 24 v 12 UTC
Severozápadní vítr 10 kt
Viditelnost: 10 km
Oblačno až skoro zataženo ve výšce 25000 ft
Od 24 v 0400 UTC
Severní vítr 6 kt
Viditelnost: 10 km
Skoro jasno ve výšce 25000 ft
Od 24 v 1100 UTC
Severoseverovýchodní vítr 7 kt
Viditelnost: 10 km
Skoro jasno ve výšce 20000 ft

TAF: KMSY 230538Z 2306/2412 31010KT P6SM BKN250 FM240400 35006KT P6SM FEW250 FM241100 02007KT P6SM FEW200

Stav a předpovědi počasí z více než 4 000 letišť (zprávy METAR a TAF).

Červené a žluté tečky na mapě představují dostupné meteorologické stanice.

Když kurzor umístíte na tečku, zobrazí se název stanice.

Pak kliknutím zobrazíte stav a předpověď počasí.

Chcete-li změnit mapu, kliknutím na zelené tlačítko se znaménkem +mapu přiblížíte, kliknutím na zelené tlačítko se znaménkem – mapu oddálíte a kliknutím na zelené šipky přejdete na sousední mapy.


METAR-TAF: